createdAt,value
2023-03-19T00:04:19.120Z,101692.72
2023-03-19T00:09:44.829Z,101696.72
2023-03-19T00:15:09.631Z,101666.06
2023-03-19T00:20:32.049Z,101668.28
2023-03-19T00:25:56.769Z,101673.59
2023-03-19T00:31:19.220Z,101657.09
2023-03-19T00:36:42.085Z,101668.59
2023-03-19T00:42:04.110Z,101639.25
2023-03-19T00:47:28.371Z,101662.59
2023-03-19T00:52:52.731Z,101641.28
2023-03-19T00:58:14.848Z,101602.13
2023-03-19T01:03:37.768Z,101629.56
2023-03-19T01:09:00.776Z,101606.50
2023-03-19T01:14:23.113Z,101638.69
2023-03-19T01:19:48.003Z,101634.09
2023-03-19T01:25:13.164Z,101651.66
2023-03-19T01:30:42.405Z,101626.06
2023-03-19T01:36:27.103Z,101656.16
2023-03-19T01:41:56.259Z,101637.66
2023-03-19T01:47:43.683Z,101642.19
2023-03-19T01:53:08.292Z,101625.44
2023-03-19T01:58:59.710Z,101600.34
2023-03-19T02:04:38.875Z,101621.88
2023-03-19T02:10:04.350Z,101589.72
2023-03-19T02:15:27.637Z,101631.56
2023-03-19T02:21:15.802Z,101610.16
2023-03-19T02:26:41.264Z,101576.09
2023-03-19T02:32:04.758Z,101586.47
2023-03-19T02:37:33.631Z,101601.66
2023-03-19T02:42:56.286Z,101584.38
2023-03-19T02:48:18.956Z,101606.72
2023-03-19T02:53:41.349Z,101581.63
2023-03-19T02:59:03.515Z,101600.13
2023-03-19T03:04:26.921Z,101584.94
2023-03-19T03:09:49.094Z,101558.88
2023-03-19T03:15:11.279Z,101575.16
2023-03-19T03:20:33.913Z,101558.72
2023-03-19T03:25:56.737Z,101532.78
2023-03-19T03:31:19.752Z,101558.88
2023-03-19T03:36:42.200Z,101500.38
2023-03-19T03:42:05.302Z,101518.22
2023-03-19T03:47:29.475Z,101532.13
2023-03-19T03:52:51.932Z,101543.50
2023-03-19T03:58:14.896Z,101521.16
2023-03-19T04:03:37.321Z,101553.19
2023-03-19T04:09:08.743Z,101518.91
2023-03-19T04:14:31.724Z,101532.09
2023-03-19T04:19:54.203Z,101539.97
2023-03-19T04:25:16.380Z,101509.75
2023-03-19T04:30:39.562Z,101514.84
2023-03-19T04:36:09.096Z,101496.28
2023-03-19T04:41:33.754Z,101529.03
2023-03-19T04:47:10.942Z,101489.13
2023-03-19T04:52:45.215Z,101490.75
2023-03-19T04:58:09.583Z,101496.81
2023-03-19T05:03:32.831Z,101510.22
2023-03-19T05:08:55.086Z,101475.50
2023-03-19T05:14:18.305Z,101492.16
2023-03-19T05:20:01.156Z,101471.66
2023-03-19T05:25:24.645Z,101485.06
2023-03-19T05:30:47.423Z,101477.88
2023-03-19T05:36:14.683Z,101455.81
2023-03-19T05:41:50.610Z,101459.09
2023-03-19T05:47:16.832Z,101419.84
2023-03-19T05:52:47.042Z,101428.56
2023-03-19T05:58:09.246Z,101436.59
2023-03-19T06:03:32.065Z,101435.28
2023-03-19T06:09:00.469Z,101448.59
2023-03-19T06:14:34.470Z,101432.22
2023-03-19T06:20:37.720Z,101397.00
2023-03-19T06:26:00.357Z,101390.06
2023-03-19T06:31:28.738Z,101395.81
2023-03-19T06:36:57.781Z,101379.56
2023-03-19T06:42:21.110Z,101390.22
2023-03-19T06:47:47.712Z,101362.09
2023-03-19T06:53:11.815Z,101378.59
2023-03-19T06:58:34.130Z,101396.50
2023-03-19T07:03:59.353Z,101354.63
2023-03-19T07:09:23.365Z,101347.53
2023-03-19T07:14:45.178Z,101361.50
2023-03-19T07:20:08.123Z,101330.38
2023-03-19T07:25:30.332Z,101336.13
2023-03-19T07:30:56.546Z,101354.75
2023-03-19T07:36:22.452Z,101326.09
2023-03-19T07:41:45.554Z,101324.66
2023-03-19T07:47:22.382Z,101317.47
2023-03-19T07:52:52.189Z,101333.03
2023-03-19T07:58:14.330Z,101307.22
2023-03-19T08:03:36.616Z,101318.69
2023-03-19T08:08:58.903Z,101292.50
2023-03-19T08:14:23.107Z,101306.38
2023-03-19T08:19:44.958Z,101294.09
2023-03-19T08:25:08.325Z,101287.50
2023-03-19T08:30:30.151Z,101288.72
2023-03-19T08:35:52.778Z,101271.75
2023-03-19T08:41:14.994Z,101258.44
2023-03-19T08:46:37.249Z,101257.19
2023-03-19T08:51:59.944Z,101232.22
2023-03-19T08:57:25.388Z,101223.47
2023-03-19T09:02:50.301Z,101210.16
2023-03-19T09:08:13.155Z,101215.91
2023-03-19T09:13:36.135Z,101225.47
2023-03-19T09:18:59.485Z,101195.81
2023-03-19T09:24:21.811Z,101179.88
2023-03-19T09:29:44.700Z,101167.41
2023-03-19T09:35:07.841Z,101183.13
2023-03-19T09:40:39.658Z,101185.72
2023-03-19T09:46:04.933Z,101169.09
2023-03-19T09:52:10.355Z,101178.66
2023-03-19T09:57:35.239Z,101167.66
2023-03-19T10:03:04.020Z,101167.22
2023-03-19T10:08:48.371Z,101156.69
2023-03-19T10:14:48.724Z,101142.03
2023-03-19T10:20:16.858Z,101131.97
2023-03-19T10:25:41.777Z,101123.16
2023-03-19T10:31:51.500Z,101128.66
2023-03-19T10:37:13.805Z,101132.56
2023-03-19T10:43:03.154Z,101125.72
2023-03-19T10:48:29.825Z,101104.94
2023-03-19T10:53:54.265Z,101100.59
2023-03-19T10:59:38.812Z,101086.63
2023-03-19T11:05:13.545Z,101091.59
2023-03-19T11:10:37.272Z,101076.16
2023-03-19T11:16:01.436Z,101079.84
2023-03-19T11:21:31.383Z,101067.41
2023-03-19T11:26:57.952Z,101064.69
2023-03-19T11:32:51.085Z,101059.03
2023-03-19T11:38:30.297Z,101045.94
2023-03-19T11:43:59.165Z,101043.78
2023-03-19T11:49:25.937Z,101031.13
2023-03-19T11:54:59.584Z,101021.16
2023-03-19T12:00:31.904Z,101011.22
2023-03-19T12:06:18.736Z,100981.22
2023-03-19T12:12:03.926Z,100992.75
2023-03-19T12:17:41.639Z,100983.47
2023-03-19T12:23:51.183Z,100977.94
2023-03-19T12:29:15.477Z,100972.94
2023-03-19T12:34:52.954Z,100955.28
2023-03-19T12:40:21.082Z,100945.56
2023-03-19T12:45:47.930Z,100923.31
2023-03-19T12:51:15.604Z,100890.47
2023-03-19T12:56:41.292Z,100919.03
2023-03-19T13:02:46.022Z,100880.91
2023-03-19T13:08:34.837Z,100878.09
2023-03-19T13:14:09.462Z,100891.09
2023-03-19T13:19:59.699Z,100891.34
2023-03-19T13:25:51.435Z,100860.53
2023-03-19T13:31:25.272Z,100853.53
2023-03-19T13:36:56.863Z,100849.75
2023-03-19T13:42:46.019Z,100864.31
2023-03-19T13:48:27.359Z,100849.19
2023-03-19T13:54:04.614Z,100840.47
2023-03-19T13:59:29.060Z,100825.97
2023-03-19T14:05:11.006Z,100825.91
2023-03-19T14:10:33.820Z,100814.88
2023-03-19T14:16:28.005Z,100794.38
2023-03-19T14:21:52.981Z,100811.09
2023-03-19T14:27:19.000Z,100811.81
2023-03-19T14:32:43.904Z,100799.22
2023-03-19T14:38:16.539Z,100806.84
2023-03-19T14:44:25.411Z,100796.50
2023-03-19T14:50:25.102Z,100803.69
2023-03-19T14:55:53.947Z,100799.28
2023-03-19T15:01:17.025Z,100791.44
2023-03-19T15:06:42.051Z,100796.03
2023-03-19T15:12:22.496Z,100792.59
2023-03-19T15:17:51.626Z,100779.66
2023-03-19T15:23:27.492Z,100789.97
2023-03-19T15:28:53.968Z,100775.56
2023-03-19T15:34:22.619Z,100796.03
2023-03-19T15:39:53.800Z,100795.03
2023-03-19T15:45:21.953Z,100802.38
2023-03-19T15:50:47.309Z,100756.25
2023-03-19T15:56:10.363Z,100764.75
2023-03-19T16:01:34.747Z,100798.78
2023-03-19T16:06:59.144Z,100800.38
2023-03-19T16:12:39.863Z,100794.63
2023-03-19T16:18:41.076Z,100798.63
2023-03-19T16:24:31.465Z,100787.72
2023-03-19T16:29:59.119Z,100786.41
2023-03-19T16:35:21.159Z,100789.59
2023-03-19T16:40:45.160Z,100761.59
2023-03-19T16:46:12.964Z,100754.75
2023-03-19T16:51:39.386Z,100785.94
2023-03-19T16:57:04.740Z,100770.72
2023-03-19T17:02:28.011Z,100774.34
2023-03-19T17:07:51.242Z,100755.91
2023-03-19T17:13:32.185Z,100752.53
2023-03-19T17:18:55.974Z,100736.44
2023-03-19T17:24:27.483Z,100729.16
2023-03-19T17:29:53.012Z,100734.97
2023-03-19T17:35:18.171Z,100721.34
2023-03-19T17:40:40.487Z,100735.63
2023-03-19T17:46:06.740Z,100704.09
2023-03-19T17:51:29.126Z,100735.88
2023-03-19T17:56:51.300Z,100746.25
2023-03-19T18:02:29.057Z,100733.03
2023-03-19T18:07:53.868Z,100741.13
2023-03-19T18:13:16.159Z,100749.97
2023-03-19T18:18:38.213Z,100741.09
2023-03-19T18:24:00.307Z,100731.94
2023-03-19T18:29:22.589Z,100718.03
2023-03-19T18:34:44.795Z,100710.03
2023-03-19T18:40:07.521Z,100738.31
2023-03-19T18:45:31.512Z,100721.41
2023-03-19T18:50:56.801Z,100730.41
2023-03-19T18:56:31.625Z,100715.03
2023-03-19T19:02:18.342Z,100726.75
2023-03-19T19:07:40.399Z,100717.66
2023-03-19T19:13:02.864Z,100715.19
2023-03-19T19:18:29.089Z,100708.53
2023-03-19T19:23:50.941Z,100701.09
2023-03-19T19:29:26.097Z,100703.84
2023-03-19T19:34:48.556Z,100706.09
2023-03-19T19:40:14.809Z,100693.44
2023-03-19T19:45:38.799Z,100676.28
2023-03-19T19:51:01.666Z,100681.34
2023-03-19T19:56:26.404Z,100700.28
2023-03-19T20:01:48.667Z,100679.69
2023-03-19T20:07:10.953Z,100679.22
2023-03-19T20:12:34.068Z,100690.59
2023-03-19T20:17:57.000Z,100696.94
2023-03-19T20:23:19.532Z,100690.09
2023-03-19T20:28:42.702Z,100692.44
2023-03-19T20:34:04.659Z,100681.34
2023-03-19T20:39:26.630Z,100681.00
2023-03-19T20:44:49.296Z,100692.53
2023-03-19T20:50:32.021Z,100660.47
2023-03-19T20:55:58.020Z,100671.13
2023-03-19T21:01:20.406Z,100681.16
2023-03-19T21:06:52.891Z,100674.56
2023-03-19T21:12:29.262Z,100654.94
2023-03-19T21:17:52.108Z,100671.00
2023-03-19T21:23:30.567Z,100682.72
2023-03-19T21:29:08.818Z,100660.13
2023-03-19T21:34:31.171Z,100639.66
2023-03-19T21:39:53.316Z,100638.72
2023-03-19T21:45:21.195Z,100646.28
2023-03-19T21:50:43.697Z,100669.81
2023-03-19T21:56:07.748Z,100670.53
2023-03-19T22:01:29.852Z,100658.41
2023-03-19T22:06:52.409Z,100657.66
2023-03-19T22:12:28.061Z,100652.41
2023-03-19T22:17:50.828Z,100654.22
2023-03-19T22:23:14.378Z,100642.34
2023-03-19T22:28:36.697Z,100637.13
2023-03-19T22:33:59.081Z,100658.44
2023-03-19T22:39:21.378Z,100631.41
2023-03-19T22:44:43.586Z,100643.69
2023-03-19T22:50:11.663Z,100638.44
2023-03-19T22:55:36.497Z,100643.38
2023-03-19T23:00:59.354Z,100637.66
2023-03-19T23:06:30.197Z,100649.13
2023-03-19T23:11:54.683Z,100639.13
2023-03-19T23:17:42.878Z,100634.06
2023-03-19T23:23:05.238Z,100634.88
2023-03-19T23:28:32.160Z,100617.16
2023-03-19T23:33:54.367Z,100630.94
2023-03-19T23:39:17.074Z,100613.56
2023-03-19T23:44:39.139Z,100613.41
2023-03-19T23:50:01.265Z,100613.09
2023-03-19T23:55:24.920Z,100608.97
